Accueil
METAR-TAF:

METAR-TAF

Aéroports :

Aéroport de Ngaoundéré

Ngaoundéré, Cameroun

latitude: 07-21N, longitude: 013-34E, altitude: 1114 m

Observation

Le bulletin a été fait il y a 37 minutes, à 12:00 UTC
Vent 6 kt de nord-est
Température 29°C
Humidité 25%
Pression 1016 hPa
Visibilité: 3500 m
brume sèche

METAR: FKKN 201200Z 05006KT 3500 HZ NSC 29/07 Q1016

Heure: 13:37 (12:37 UTC)


TAF: absent

Observations et prévisions météorologiques de plus de 4000 aéroports (messages METAR et TAF).

Les stations disponibles sont représentées par des disques jaunes et rouges sur la carte.

Passer la souris dessus pour voir le nom de la station.

Cliquer dessus pour voir les observations et prévisions météorologiques.

Pour changer de carte: cliquez sur les boutons verts avec une croix noire pour zoomer, sur le bouton vert avec un tiret pour effectuer un zoom arrière, ou sur les flèches vertes pour les cartes adjacentes.


METAR-TAF: